• Join FlightAware (Why Join?)
  • Login
  • US Flag 
09:36PM EDT


 

Airport Tracker/Info


-or-


 

Live Flight TrackerFlight Track Log ✈ ERR707 ✈ 08-Jan-2014 ✈ PAFA / FAI - PANC

Flight Track Log - Related Links

Times and Time Zones

All times are in EST time to prevent confusion due to time zone crossing. See the ERR707 flight status page for this flight to view local times or setup timezone preferences in your user account.

Time Position Orientation Groundspeed Altitude Reporting Facility
EST Latitude Longitude Course Direction KTS MPH feet Rate Location/Type
10:49PM 64.7667 -148.0167 237° Southwest 170 196 4,200  Level Anchorage Center
10:50PM 64.7333 -148.1000 227° Southwest 170 196 6,000 1,800 Climbing Anchorage Center
10:51PM 64.7000 -148.1833 227° Southwest 180 207 7,900 1,680 Climbing Anchorage Center
10:52PM 64.6500 -148.2500 210° Southwest 180 207 9,500 1,680 Climbing Anchorage Center
10:53PM 64.6167 -148.3167 221° Southwest 190 219 11,300 1,740 Climbing Anchorage Center
10:54PM 64.4739 -148.0821 216° Southwest  Level Estimated
10:54PM 64.5667 -148.3667 203° Southwest 190 219 13,000  Level Anchorage Center
10:55PM 64.4419 -148.1974 237° Southwest  Level FlightAware Approximate
10:55PM 64.5167 -148.4000 196° South 190 219 14,600  Level Anchorage Center
10:56PM 64.4667 -148.4500 203° Southwest 190 219 16,000 1,320 Climbing Anchorage Center
10:57PM 64.4167 -148.4833 196° South 190 219 17,300 1,500 Climbing Anchorage Center
10:58PM 64.3667 -148.5333 203° Southwest 200 230 19,100 1,620 Climbing Anchorage Center
10:59PM 64.3167 -148.5667 196° South 190 219 20,600 900 Climbing Anchorage Center
11:00PM 64.2667 -148.6167 203° Southwest 210 242 21,000 180 Climbing Anchorage Center
11:01PM 64.2000 -148.6667 198° South 240 276 21,000  Level Anchorage Center
11:02PM 64.1333 -148.7167 198° South 250 288 21,000  Level Anchorage Center
11:03PM 64.0667 -148.7667 198° South 250 288 21,000  Level Anchorage Center
11:04PM 64.0000 -148.8167 198° South 250 288 21,000  Level Anchorage Center
11:05PM 63.9167 -148.8667 195° South 260 299 21,000  Level Anchorage Center
11:06PM 63.8667 -148.9167 204° Southwest 260 299 21,000  Level Anchorage Center
11:07PM 63.7833 -148.9667 195° South 260 299 21,000  Level Anchorage Center
11:08PM 63.7167 -149.0167 198° South 260 299 21,000  Level Anchorage Center
11:09PM 63.6500 -149.0667 198° South 270 311 21,000  Level Anchorage Center
11:10PM 63.5833 -149.1167 198° South 250 288 21,000  Level Anchorage Center
11:11PM 63.5167 -149.1667 198° South 250 288 21,000  Level Anchorage Center
11:12PM 63.4500 -149.2167 199° South 260 299 21,000  Level Anchorage Center
11:13PM 63.3833 -149.2667 199° South 250 288 21,000  Level Anchorage Center
11:14PM 63.3167 -149.3167 199° South 250 288 21,000  Level Anchorage Center
11:15PM 63.2500 -149.3667 199° South 250 288 21,000  Level Anchorage Center
11:16PM 63.2000 -149.4167 204° Southwest 240 276 21,000  Level Anchorage Center
11:17PM 63.1167 -149.4833 200° South 270 311 21,000  Level Anchorage Center
11:19PM 63.0333 -149.5167 190° South 250 288 21,000  Level Anchorage Center
11:20PM 62.9667 -149.5667 199° South 250 288 21,000  Level Anchorage Center
11:21PM 62.9000 -149.6167 199° South 250 288 21,000  Level Anchorage Center
11:22PM 62.8333 -149.6667 199° South 250 288 21,000  Level Anchorage Center
11:23PM 62.7667 -149.7167 199° South 250 288 21,000  Level Anchorage Center
11:24PM 62.7000 -149.7667 199° South 250 288 21,000  Level Anchorage Center
11:25PM 62.6333 -149.8000 193° South 260 299 21,000  Level Anchorage Center
11:26PM 62.5667 -149.8500 199° South 260 299 21,000  Level Anchorage Center
11:27PM 62.5000 -149.9000 199° South 250 288 21,000  Level Anchorage Center
11:28PM 62.4333 -149.9500 199° South 250 288 21,000  Level Anchorage Center
11:29PM 62.3667 -149.9833 193° South 250 288 21,000 -540 Level Anchorage Center
11:30PM 62.3000 -150.0333 199° South 260 299 20,000 -1,200 Descending Anchorage Center
11:31PM 62.2167 -150.0833 196° South 270 311 18,700 -1,680 Descending Anchorage Center
11:32PM 62.1500 -150.1333 199° South 260 299 16,700 -1,560 Descending Anchorage Center
11:33PM 62.0833 -150.1833 199° South 270 311 15,600 -1,260 Descending Anchorage Center
11:34PM 62.0167 -150.2333 199° South 270 311 14,200 -1,260 Descending Anchorage Center
11:35PM 61.9333 -150.2667 191° South 270 311 13,100 -1,140 Descending Anchorage Center
11:37PM 61.8194 -150.3539 198° South  Level FlightAware Approximate
11:44PM 61.4026 -150.2171 157° South  Level FlightAware Approximate
11:45PM 61.3448 -150.1615 154° Southeast  Level FlightAware Approximate
11:46PM 61.2907 -150.0958 159° South  Level FlightAware Approximate
11:47PM 61.2313 -150.0479 154° Southeast  Level FlightAware Approximate
11:48PM 61.1739 -149.9906 154° Southeast  Level FlightAware Approximate
11:49PM 61.1667 -149.9833 154° Southeast  Level FlightAware Approximate
11:50PM 61.1741 -149.9982 154° Southeast  Level Estimated
11:51PM 61.1741 -149.9982 154° Southeast  Level Estimated
11:52PM 61.1741 -149.9982 154° Southeast  Level Estimated
11:53PM 61.1741 -149.9982 154° Southeast  Level Estimated
11:54PM 61.1741 -149.9982 154° Southeast  Level Estimated
11:55PM 61.1741 -149.9982 154° Southeast  Level Estimated
11:56PM 61.1741 -149.9982 154° Southeast  Level Estimated
11:57PM 61.1741 -149.9982 154° Southeast  Level Estimated
11:58PM 61.1741 -149.9982 154° Southeast  Level Estimated
11:59PM 61.1741 -149.9982 154° Southeast  Level Estimated
12:00AM 61.1741 -149.9982 154° Southeast  Level Estimated
12:01AM 61.1741 -149.9982 154° Southeast  Level Estimated
12:02AM 61.1741 -149.9982 154° Southeast  Level Estimated
12:03AM 61.1741 -149.9982 154° Southeast  Level Estimated
12:04AM 61.1741 -149.9982 154° Southeast  Level Estimated
12:05AM 61.1741 -149.9982 154° Southeast  Level Estimated